Daily Summary

Last 30 Days

Daily Data | Pacific/Honolulu
as of 10/30/20 4:15 AM HST
Date Daily Max Temp (°F) Time of Max Temp Daily Min Temp (°F) Time of Min Temp Daily Rain (In) Seasonal Rainfall (In) Wind Spd (mph) Daily Max Wind (mph) Time of Max Wind Max Wind Dir (°) Daily Solar Rad (Cal/cm2) Daily ETo (in) Dew Pt (°F) Max RH (%) Min RH (%) Max Press (inHg) Time of Max Press Min Press (inHg) Time of Min Press Bat Volt Min Day (V)
10/29/20 82.9 1408 72.3 0626 0.00 16.09 3.7 15.6 1521 SW | 224 347 0.126 67.4 90 53 29.93 0008 29.83 1504 12.7
10/28/20 85.1 1255 71.7 0447 0.00 16.09 3.8 13.6 1259 SSW | 195 427 0.143 70.9 94 64 29.99 0002 29.84 1446 12.7
10/27/20 82.4 1312 72.6 2326 0.88 16.09 2.4 9.7 2345 NNE | 30 82 0.038 71.5 94 66 30.02 1022 29.91 1550 12.7
10/26/20 84.9 1206 73.3 0527 0.00 15.21 3.0 11.8 1345 SW | 219 283 0.101 71.6 90 60 30.05 1011 29.95 0431 12.7
10/25/20 89.0 1404 73.1 0638 0.01 15.21 2.6 13.6 1122 NE | 35 324 0.116 71.4 90 52 30.04 2111 29.89 1433 12.7
10/24/20 86.3 1445 73.9 0309 0.19 15.20 3.4 11.0 0308 NNE | 31 475 0.159 72.1 94 55 30.02 2120 29.89 1444 12.8
10/23/20 83.3 1220 75.0 2110 0.12 15.01 2.8 13.0 1349 S | 178 213 0.075 72.7 94 72 29.99 2140 29.88 0346 12.8
10/22/20 82.4 1226 73.2 0400 0.02 14.89 2.9 11.7 1153 S | 188 257 0.088 71.8 92 67 29.98 0920 29.89 1521 12.7
10/21/20 83.4 1043 74.6 0512 0.11 14.87 3.2 11.6 1347 SSW | 196 306 0.103 72.8 92 70 30.01 0929 29.89 1618 12.8
10/20/20 84.6 1041 75.2 2318 0.09 14.76 3.1 14.0 1312 E | 86 327 0.110 73.2 92 64 30.00 2155 29.87 0401 12.7
10/19/20 85.8 1223 75.1 0440 0.42 14.67 3.0 10.7 1254 ESE | 112 304 0.102 73.0 95 60 29.97 0957 29.86 1537 12.7
10/18/20 85.0 1236 76.4 0559 0.01 14.25 3.2 16.4 1105 SW | 226 352 0.121 72.9 89 62 29.99 0924 29.87 1613 12.8
10/17/20 85.0 1255 75.6 0644 0.00 14.24 2.8 10.5 1409 SW | 221 253 0.092 72.7 89 67 30.00 0939 29.91 1422 12.7
10/16/20 85.1 1007 76.0 0016 0.00 14.24 3.4 14.7 1347 SW | 216 401 0.136 72.8 91 63 29.99 2111 29.88 0410 12.7
10/15/20 85.1 1509 74.3 0546 0.00 14.24 3.7 12.7 1431 SSW | 202 496 0.166 71.4 89 62 29.97 2204 29.83 0318 12.7
10/14/20 85.5 1158 72.9 0642 0.07 14.24 3.0 13.7 1015 E | 80 465 0.155 70.5 92 60 29.94 0002 29.82 1543 12.8
10/13/20 86.1 1320 77.4 2328 0.00 14.17 6.3 24.3 1114 ENE | 73 478 0.189 68.2 75 52 30.01 0005 29.88 1502 12.8
10/12/20 86.1 1307 73.3 0655 0.25 14.17 4.3 22.0 1521 NNE | 33 380 0.141 71.4 94 56 30.08 0906 29.95 1521 12.8
10/11/20 86.2 1233 76.7 0352 0.01 13.92 5.4 25.0 1519 NNE | 24 468 0.167 70.4 86 58 30.09 0908 29.95 1511 12.8
10/10/20 85.4 1351 77.9 0357 0.00 13.91 6.6 21.4 1321 NE | 35 492 0.200 67.9 75 51 30.08 0936 29.97 1425 12.7
10/9/20 87.2 1219 74.8 0657 0.00 13.91 3.9 18.3 2223 ENE | 58 527 0.194 68.1 80 47 30.05 2236 29.92 1528 12.8
10/8/20 86.3 1147 77.7 0556 0.00 13.91 5.6 17.7 1121 NE | 42 411 0.167 68.8 73 52 30.06 0936 29.93 1538 12.7
10/7/20 86.9 1140 78.7 0515 0.00 13.91 6.1 22.5 1606 NE | 52 514 0.197 70.0 74 56 30.07 2249 29.95 1605 12.7
10/6/20 88.0 1223 75.7 0503 0.00 13.91 5.1 19.1 1650 NNE | 29 491 0.188 69.7 80 50 30.06 2212 29.94 0348 12.8
10/5/20 85.5 1320 74.5 0432 0.06 13.91 5.4 20.7 1513 NNE | 31 472 0.175 69.8 91 58 30.03 0005 29.90 1504 12.7
10/4/20 85.2 1203 77.8 0235 0.00 13.85 7.3 26.8 1447 NE | 39 534 0.209 68.4 73 55 30.07 0029 29.94 1528 12.6
10/3/20 88.4 1357 74.8 0643 0.00 13.85 4.9 21.3 1851 NNE | 26 510 0.188 71.1 92 53 30.08 2212 29.93 1435 12.7
10/2/20 87.1 1045 76.2 2301 0.13 13.85 3.1 13.9 1139 SSW | 197 490 0.170 73.4 92 65 30.02 2316 29.89 1546 12.7
10/1/20 89.7 1148 73.9 0200 0.00 13.72 4.0 18.5 1403 NE | 37 482 0.181 69.1 78 52 29.97 2221 29.86 1403 12.7
9/30/20 89.7 1238 71.1 0639 0.00 13.72 2.8 13.8 1446 SSW | 211 573 0.199 66.8 83 41 29.99 2105 29.88 1550 12.7
Max 89.7 - 78.7 - 0.88 - 7.3 26.8 - - 573 0.209 73.4 95 72 30.09 - 29.97 - 12.8
Avg - - - - - - 4.0 - - - - - 70.7 - - - - - - -
Min 82.4 - 71.1 - 0.00 - 2.4 9.7 - - 82 0.038 66.8 73 41 29.93 - 29.82 - 12.6